sensor_id;sensor_type;location;lat;lon;timestamp;temperature;humidity
66670;DHT22;53568;52.164;4.472;2023-11-19T00:00:46;15.33;83.67
66670;DHT22;53568;52.164;4.472;2023-11-19T00:03:11;15.34;83.50
66670;DHT22;53568;52.164;4.472;2023-11-19T00:05:38;15.36;83.42
66670;DHT22;53568;52.164;4.472;2023-11-19T00:08:04;15.31;83.38
66670;DHT22;53568;52.164;4.472;2023-11-19T00:10:31;15.27;83.41
66670;DHT22;53568;52.164;4.472;2023-11-19T00:12:57;15.36;83.21
66670;DHT22;53568;52.164;4.472;2023-11-19T00:15:22;15.30;83.30
66670;DHT22;53568;52.164;4.472;2023-11-19T00:17:49;15.30;83.27
66670;DHT22;53568;52.164;4.472;2023-11-19T00:20:19;15.27;83.31
66670;DHT22;53568;52.164;4.472;2023-11-19T00:22:47;15.23;83.30
66670;DHT22;53568;52.164;4.472;2023-11-19T00:25:17;15.22;83.45
66670;DHT22;53568;52.164;4.472;2023-11-19T00:27:43;15.26;83.32
66670;DHT22;53568;52.164;4.472;2023-11-19T00:30:10;15.26;83.42
66670;DHT22;53568;52.164;4.472;2023-11-19T00:32:36;15.24;83.57
66670;DHT22;53568;52.164;4.472;2023-11-19T00:35:04;15.28;83.48
66670;DHT22;53568;52.164;4.472;2023-11-19T00:37:30;15.24;83.53
66670;DHT22;53568;52.164;4.472;2023-11-19T00:39:55;15.16;83.58
66670;DHT22;53568;52.164;4.472;2023-11-19T00:42:22;15.19;83.74
66670;DHT22;53568;52.164;4.472;2023-11-19T00:44:49;15.16;83.73
66670;DHT22;53568;52.164;4.472;2023-11-19T00:47:15;15.13;83.97
66670;DHT22;53568;52.164;4.472;2023-11-19T00:49:40;15.19;83.73
66670;DHT22;53568;52.164;4.472;2023-11-19T00:52:06;15.20;83.51
66670;DHT22;53568;52.164;4.472;2023-11-19T00:54:32;15.10;83.56
66670;DHT22;53568;52.164;4.472;2023-11-19T00:56:57;15.10;83.67
66670;DHT22;53568;52.164;4.472;2023-11-19T00:59:23;15.16;83.43
66670;DHT22;53568;52.164;4.472;2023-11-19T01:01:49;15.07;83.45
66670;DHT22;53568;52.164;4.472;2023-11-19T01:04:14;15.13;83.37
66670;DHT22;53568;52.164;4.472;2023-11-19T01:06:40;15.10;83.29
66670;DHT22;53568;52.164;4.472;2023-11-19T01:09:08;15.07;83.35
66670;DHT22;53568;52.164;4.472;2023-11-19T01:11:34;15.07;82.98
66670;DHT22;53568;52.164;4.472;2023-11-19T01:14:01;15.00;83.10
66670;DHT22;53568;52.164;4.472;2023-11-19T01:16:27;15.00;82.99
66670;DHT22;53568;52.164;4.472;2023-11-19T01:18:52;15.04;82.64
66670;DHT22;53568;52.164;4.472;2023-11-19T01:21:18;15.08;82.65
66670;DHT22;53568;52.164;4.472;2023-11-19T01:23:44;15.04;82.34
66670;DHT22;53568;52.164;4.472;2023-11-19T01:26:10;15.06;82.21
66670;DHT22;53568;52.164;4.472;2023-11-19T01:28:36;14.97;82.12
66670;DHT22;53568;52.164;4.472;2023-11-19T01:31:02;14.96;81.87
66670;DHT22;53568;52.164;4.472;2023-11-19T01:33:29;14.92;82.07
66670;DHT22;53568;52.164;4.472;2023-11-19T01:35:55;14.95;82.00
66670;DHT22;53568;52.164;4.472;2023-11-19T01:38:24;14.95;81.77
66670;DHT22;53568;52.164;4.472;2023-11-19T01:40:49;14.95;81.80
66670;DHT22;53568;52.164;4.472;2023-11-19T01:43:38;14.93;81.63
66670;DHT22;53568;52.164;4.472;2023-11-19T01:46:06;14.80;81.82
66670;DHT22;53568;52.164;4.472;2023-11-19T01:48:39;14.86;81.69
66670;DHT22;53568;52.164;4.472;2023-11-19T01:51:06;14.82;81.86
66670;DHT22;53568;52.164;4.472;2023-11-19T01:53:34;14.85;81.55
66670;DHT22;53568;52.164;4.472;2023-11-19T01:56:02;14.82;81.51
66670;DHT22;53568;52.164;4.472;2023-11-19T01:58:29;14.83;81.46
66670;DHT22;53568;52.164;4.472;2023-11-19T02:00:57;14.75;81.54
66670;DHT22;53568;52.164;4.472;2023-11-19T02:03:24;14.75;81.40
66670;DHT22;53568;52.164;4.472;2023-11-19T02:05:51;14.77;81.40
66670;DHT22;53568;52.164;4.472;2023-11-19T02:08:18;14.77;81.38
66670;DHT22;53568;52.164;4.472;2023-11-19T02:10:44;14.76;81.27
66670;DHT22;53568;52.164;4.472;2023-11-19T02:13:11;14.69;81.29
66670;DHT22;53568;52.164;4.472;2023-11-19T02:15:40;14.73;81.34
66670;DHT22;53568;52.164;4.472;2023-11-19T02:20:44;14.63;81.32
66670;DHT22;53568;52.164;4.472;2023-11-19T02:23:09;14.66;81.34
66670;DHT22;53568;52.164;4.472;2023-11-19T02:25:36;14.58;81.50
66670;DHT22;53568;52.164;4.472;2023-11-19T02:28:03;14.58;81.39
66670;DHT22;53568;52.164;4.472;2023-11-19T02:30:29;14.65;81.09
66670;DHT22;53568;52.164;4.472;2023-11-19T02:32:56;14.62;81.24
66670;DHT22;53568;52.164;4.472;2023-11-19T02:35:23;14.56;81.28
66670;DHT22;53568;52.164;4.472;2023-11-19T02:37:49;14.55;81.15
66670;DHT22;53568;52.164;4.472;2023-11-19T02:40:14;14.58;81.16
66670;DHT22;53568;52.164;4.472;2023-11-19T02:42:40;14.56;81.07
66670;DHT22;53568;52.164;4.472;2023-11-19T02:45:06;14.56;81.06
66670;DHT22;53568;52.164;4.472;2023-11-19T02:47:35;14.48;80.93
66670;DHT22;53568;52.164;4.472;2023-11-19T02:50:01;14.42;80.99
66670;DHT22;53568;52.164;4.472;2023-11-19T02:52:27;14.36;81.13
66670;DHT22;53568;52.164;4.472;2023-11-19T02:54:53;14.36;81.12
66670;DHT22;53568;52.164;4.472;2023-11-19T02:57:18;14.36;80.78
66670;DHT22;53568;52.164;4.472;2023-11-19T02:59:47;14.38;80.70
66670;DHT22;53568;52.164;4.472;2023-11-19T03:02:13;14.33;80.76
66670;DHT22;53568;52.164;4.472;2023-11-19T03:04:41;14.35;80.57
66670;DHT22;53568;52.164;4.472;2023-11-19T03:07:09;14.42;80.43
66670;DHT22;53568;52.164;4.472;2023-11-19T03:09:34;14.38;80.40
66670;DHT22;53568;52.164;4.472;2023-11-19T03:12:01;14.33;80.32
66670;DHT22;53568;52.164;4.472;2023-11-19T03:14:26;14.36;80.18
66670;DHT22;53568;52.164;4.472;2023-11-19T03:16:53;14.39;80.11
66670;DHT22;53568;52.164;4.472;2023-11-19T03:19:18;14.39;80.12
66670;DHT22;53568;52.164;4.472;2023-11-19T03:21:44;14.41;79.91
66670;DHT22;53568;52.164;4.472;2023-11-19T03:24:10;14.43;79.96
66670;DHT22;53568;52.164;4.472;2023-11-19T03:26:38;14.39;79.83
66670;DHT22;53568;52.164;4.472;2023-11-19T03:29:03;14.42;79.69
66670;DHT22;53568;52.164;4.472;2023-11-19T03:31:29;14.31;79.40
66670;DHT22;53568;52.164;4.472;2023-11-19T03:33:54;14.36;79.38
66670;DHT22;53568;52.164;4.472;2023-11-19T03:36:20;14.31;79.41
66670;DHT22;53568;52.164;4.472;2023-11-19T03:38:45;14.28;79.61
66670;DHT22;53568;52.164;4.472;2023-11-19T03:41:15;14.25;79.52
66670;DHT22;53568;52.164;4.472;2023-11-19T03:43:41;14.26;79.74
66670;DHT22;53568;52.164;4.472;2023-11-19T03:46:20;14.12;79.76
66670;DHT22;53568;52.164;4.472;2023-11-19T03:48:49;14.14;79.78
66670;DHT22;53568;52.164;4.472;2023-11-19T03:51:16;14.19;79.75
66670;DHT22;53568;52.164;4.472;2023-11-19T03:53:43;14.08;79.63
66670;DHT22;53568;52.164;4.472;2023-11-19T03:56:09;14.15;79.57
66670;DHT22;53568;52.164;4.472;2023-11-19T03:58:38;14.14;79.31
66670;DHT22;53568;52.164;4.472;2023-11-19T04:01:05;14.17;79.04
66670;DHT22;53568;52.164;4.472;2023-11-19T04:03:30;14.17;78.90
66670;DHT22;53568;52.164;4.472;2023-11-19T04:05:56;14.17;78.73
66670;DHT22;53568;52.164;4.472;2023-11-19T04:08:22;14.14;78.33
66670;DHT22;53568;52.164;4.472;2023-11-19T04:10:47;14.14;78.30
66670;DHT22;53568;52.164;4.472;2023-11-19T04:13:13;14.05;78.10
66670;DHT22;53568;52.164;4.472;2023-11-19T04:15:39;14.11;78.00
66670;DHT22;53568;52.164;4.472;2023-11-19T04:18:04;14.12;77.79
66670;DHT22;53568;52.164;4.472;2023-11-19T04:20:30;14.14;77.50
66670;DHT22;53568;52.164;4.472;2023-11-19T04:22:57;14.12;77.29
66670;DHT22;53568;52.164;4.472;2023-11-19T04:25:22;14.18;76.84
66670;DHT22;53568;52.164;4.472;2023-11-19T04:27:49;14.12;76.68
66670;DHT22;53568;52.164;4.472;2023-11-19T04:30:15;14.08;76.37
66670;DHT22;53568;52.164;4.472;2023-11-19T04:32:40;14.12;76.24
66670;DHT22;53568;52.164;4.472;2023-11-19T04:35:06;14.14;76.09
66670;DHT22;53568;52.164;4.472;2023-11-19T04:37:32;14.15;75.97
66670;DHT22;53568;52.164;4.472;2023-11-19T04:39:58;14.12;75.79
66670;DHT22;53568;52.164;4.472;2023-11-19T04:42:25;14.08;75.70
66670;DHT22;53568;52.164;4.472;2023-11-19T04:44:50;14.11;75.54
66670;DHT22;53568;52.164;4.472;2023-11-19T04:47:16;14.09;75.48
66670;DHT22;53568;52.164;4.472;2023-11-19T04:49:42;14.18;75.28
66670;DHT22;53568;52.164;4.472;2023-11-19T04:52:08;14.19;75.25
66670;DHT22;53568;52.164;4.472;2023-11-19T04:54:34;14.07;75.56
66670;DHT22;53568;52.164;4.472;2023-11-19T04:57:00;14.07;75.66
66670;DHT22;53568;52.164;4.472;2023-11-19T04:59:25;14.15;75.37
66670;DHT22;53568;52.164;4.472;2023-11-19T05:01:52;14.12;75.31
66670;DHT22;53568;52.164;4.472;2023-11-19T05:04:18;14.08;75.04
66670;DHT22;53568;52.164;4.472;2023-11-19T05:06:44;14.07;74.90
66670;DHT22;53568;52.164;4.472;2023-11-19T05:09:10;14.02;74.87
66670;DHT22;53568;52.164;4.472;2023-11-19T05:11:38;14.02;74.90
66670;DHT22;53568;52.164;4.472;2023-11-19T05:14:04;14.00;74.87
66670;DHT22;53568;52.164;4.472;2023-11-19T05:16:31;13.98;74.74
66670;DHT22;53568;52.164;4.472;2023-11-19T05:18:56;14.04;74.80
66670;DHT22;53568;52.164;4.472;2023-11-19T05:21:22;14.08;74.79
66670;DHT22;53568;52.164;4.472;2023-11-19T05:23:47;14.07;75.12
66670;DHT22;53568;52.164;4.472;2023-11-19T05:26:20;14.01;75.37
66670;DHT22;53568;52.164;4.472;2023-11-19T05:28:46;14.04;75.51
66670;DHT22;53568;52.164;4.472;2023-11-19T05:31:12;14.04;75.47
66670;DHT22;53568;52.164;4.472;2023-11-19T05:33:38;14.05;75.64
66670;DHT22;53568;52.164;4.472;2023-11-19T05:36:04;13.98;75.70
66670;DHT22;53568;52.164;4.472;2023-11-19T05:38:30;14.05;75.62
66670;DHT22;53568;52.164;4.472;2023-11-19T05:40:56;14.01;75.67
66670;DHT22;53568;52.164;4.472;2023-11-19T05:43:21;14.02;75.63
66670;DHT22;53568;52.164;4.472;2023-11-19T05:45:47;14.01;75.38
66670;DHT22;53568;52.164;4.472;2023-11-19T05:48:13;14.08;75.22
66670;DHT22;53568;52.164;4.472;2023-11-19T05:50:39;14.09;74.98
66670;DHT22;53568;52.164;4.472;2023-11-19T05:53:04;14.07;74.68
66670;DHT22;53568;52.164;4.472;2023-11-19T05:55:36;14.01;74.86
66670;DHT22;53568;52.164;4.472;2023-11-19T05:58:10;14.09;74.64
66670;DHT22;53568;52.164;4.472;2023-11-19T06:00:38;14.07;74.59
66670;DHT22;53568;52.164;4.472;2023-11-19T06:03:04;14.01;74.65
66670;DHT22;53568;52.164;4.472;2023-11-19T06:05:30;14.04;74.59
66670;DHT22;53568;52.164;4.472;2023-11-19T06:07:55;14.02;74.68
66670;DHT22;53568;52.164;4.472;2023-11-19T06:10:22;14.04;74.63
66670;DHT22;53568;52.164;4.472;2023-11-19T06:12:54;14.00;74.70
66670;DHT22;53568;52.164;4.472;2023-11-19T06:15:22;14.02;74.92
66670;DHT22;53568;52.164;4.472;2023-11-19T06:17:47;14.05;74.73
66670;DHT22;53568;52.164;4.472;2023-11-19T06:20:13;14.05;74.81
66670;DHT22;53568;52.164;4.472;2023-11-19T06:22:39;14.09;74.70
66670;DHT22;53568;52.164;4.472;2023-11-19T06:25:08;14.15;74.65
66670;DHT22;53568;52.164;4.472;2023-11-19T06:27:33;14.18;74.67
66670;DHT22;53568;52.164;4.472;2023-11-19T06:30:00;14.18;74.65
66670;DHT22;53568;52.164;4.472;2023-11-19T06:32:25;14.17;74.75
66670;DHT22;53568;52.164;4.472;2023-11-19T06:34:51;14.08;75.08
66670;DHT22;53568;52.164;4.472;2023-11-19T06:37:16;14.04;75.40
66670;DHT22;53568;52.164;4.472;2023-11-19T06:39:42;14.05;75.39
66670;DHT22;53568;52.164;4.472;2023-11-19T06:42:07;14.01;75.47
66670;DHT22;53568;52.164;4.472;2023-11-19T06:44:32;14.01;75.55
66670;DHT22;53568;52.164;4.472;2023-11-19T06:46:58;14.01;75.83
66670;DHT22;53568;52.164;4.472;2023-11-19T06:49:24;13.98;75.81
66670;DHT22;53568;52.164;4.472;2023-11-19T06:51:49;14.04;75.80
66670;DHT22;53568;52.164;4.472;2023-11-19T06:54:15;14.07;75.75
66670;DHT22;53568;52.164;4.472;2023-11-19T06:56:41;14.05;75.54
66670;DHT22;53568;52.164;4.472;2023-11-19T06:59:07;14.00;75.56
66670;DHT22;53568;52.164;4.472;2023-11-19T07:01:36;14.01;75.61
66670;DHT22;53568;52.164;4.472;2023-11-19T07:04:02;13.98;75.44
66670;DHT22;53568;52.164;4.472;2023-11-19T07:06:35;14.11;75.28
66670;DHT22;53568;52.164;4.472;2023-11-19T07:09:02;14.11;75.27
66670;DHT22;53568;52.164;4.472;2023-11-19T07:11:39;14.19;75.02
66670;DHT22;53568;52.164;4.472;2023-11-19T07:14:05;14.17;74.82
66670;DHT22;53568;52.164;4.472;2023-11-19T07:16:35;14.24;74.37
66670;DHT22;53568;52.164;4.472;2023-11-19T07:19:06;14.24;74.19
66670;DHT22;53568;52.164;4.472;2023-11-19T07:21:32;14.25;74.15
66670;DHT22;53568;52.164;4.472;2023-11-19T07:23:58;14.21;74.22
66670;DHT22;53568;52.164;4.472;2023-11-19T07:26:24;14.19;74.28
66670;DHT22;53568;52.164;4.472;2023-11-19T07:28:50;14.19;74.21
66670;DHT22;53568;52.164;4.472;2023-11-19T07:31:16;14.19;74.38
66670;DHT22;53568;52.164;4.472;2023-11-19T07:33:45;14.12;74.55
66670;DHT22;53568;52.164;4.472;2023-11-19T07:36:11;14.19;74.59
66670;DHT22;53568;52.164;4.472;2023-11-19T07:38:37;14.14;74.64
66670;DHT22;53568;52.164;4.472;2023-11-19T07:41:04;14.18;74.65
66670;DHT22;53568;52.164;4.472;2023-11-19T07:43:31;14.24;74.60
66670;DHT22;53568;52.164;4.472;2023-11-19T07:45:56;14.29;74.56
66670;DHT22;53568;52.164;4.472;2023-11-19T07:48:24;14.24;74.59
66670;DHT22;53568;52.164;4.472;2023-11-19T07:50:50;14.28;74.41
66670;DHT22;53568;52.164;4.472;2023-11-19T07:53:16;14.19;74.31
66670;DHT22;53568;52.164;4.472;2023-11-19T07:55:41;14.24;74.10
66670;DHT22;53568;52.164;4.472;2023-11-19T07:58:07;14.32;73.96
66670;DHT22;53568;52.164;4.472;2023-11-19T08:00:33;14.32;73.78
66670;DHT22;53568;52.164;4.472;2023-11-19T08:02:58;14.33;73.91
66670;DHT22;53568;52.164;4.472;2023-11-19T08:05:23;14.21;73.69
66670;DHT22;53568;52.164;4.472;2023-11-19T08:07:50;14.36;73.38
66670;DHT22;53568;52.164;4.472;2023-11-19T08:10:21;14.43;73.14
66670;DHT22;53568;52.164;4.472;2023-11-19T08:12:46;14.38;73.13
66670;DHT22;53568;52.164;4.472;2023-11-19T08:15:12;14.42;73.08
66670;DHT22;53568;52.164;4.472;2023-11-19T08:17:38;14.45;72.99
66670;DHT22;53568;52.164;4.472;2023-11-19T08:20:04;14.46;72.99
66670;DHT22;53568;52.164;4.472;2023-11-19T08:22:30;14.55;73.05
66670;DHT22;53568;52.164;4.472;2023-11-19T08:24:56;14.53;73.35
66670;DHT22;53568;52.164;4.472;2023-11-19T08:27:22;14.53;73.62
66670;DHT22;53568;52.164;4.472;2023-11-19T08:29:55;14.52;73.95
66670;DHT22;53568;52.164;4.472;2023-11-19T08:32:23;14.48;73.80
66670;DHT22;53568;52.164;4.472;2023-11-19T08:34:49;14.51;73.89
66670;DHT22;53568;52.164;4.472;2023-11-19T08:37:14;14.56;73.89
66670;DHT22;53568;52.164;4.472;2023-11-19T08:39:40;14.59;73.95
66670;DHT22;53568;52.164;4.472;2023-11-19T08:42:07;14.56;73.79
66670;DHT22;53568;52.164;4.472;2023-11-19T08:44:32;14.51;73.84
66670;DHT22;53568;52.164;4.472;2023-11-19T08:46:58;14.45;74.21
66670;DHT22;53568;52.164;4.472;2023-11-19T08:49:24;14.49;74.21
66670;DHT22;53568;52.164;4.472;2023-11-19T08:51:49;14.51;74.05
66670;DHT22;53568;52.164;4.472;2023-11-19T08:54:15;14.55;74.04
66670;DHT22;53568;52.164;4.472;2023-11-19T08:56:40;14.66;73.78
66670;DHT22;53568;52.164;4.472;2023-11-19T08:59:06;14.72;73.53
66670;DHT22;53568;52.164;4.472;2023-11-19T09:01:31;14.77;73.31
66670;DHT22;53568;52.164;4.472;2023-11-19T09:03:57;14.68;73.39
66670;DHT22;53568;52.164;4.472;2023-11-19T09:06:23;14.75;73.33
66670;DHT22;53568;52.164;4.472;2023-11-19T09:08:48;14.72;73.54
66670;DHT22;53568;52.164;4.472;2023-11-19T09:11:14;14.72;73.67
66670;DHT22;53568;52.164;4.472;2023-11-19T09:13:39;14.66;73.71
66670;DHT22;53568;52.164;4.472;2023-11-19T09:16:05;14.62;74.05
66670;DHT22;53568;52.164;4.472;2023-11-19T09:18:31;14.61;74.13
66670;DHT22;53568;52.164;4.472;2023-11-19T09:21:00;14.72;73.86
66670;DHT22;53568;52.164;4.472;2023-11-19T09:23:25;14.75;73.86
66670;DHT22;53568;52.164;4.472;2023-11-19T09:25:53;14.83;73.60
66670;DHT22;53568;52.164;4.472;2023-11-19T09:28:18;14.82;73.59
66670;DHT22;53568;52.164;4.472;2023-11-19T09:30:44;14.87;73.31
66670;DHT22;53568;52.164;4.472;2023-11-19T09:33:09;14.89;73.12
66670;DHT22;53568;52.164;4.472;2023-11-19T09:35:35;14.97;73.21
66670;DHT22;53568;52.164;4.472;2023-11-19T09:38:01;14.92;73.32
66670;DHT22;53568;52.164;4.472;2023-11-19T09:40:27;14.89;73.04
66670;DHT22;53568;52.164;4.472;2023-11-19T09:42:53;14.90;73.28
66670;DHT22;53568;52.164;4.472;2023-11-19T09:45:21;14.80;73.15
66670;DHT22;53568;52.164;4.472;2023-11-19T09:47:51;14.89;72.99
66670;DHT22;53568;52.164;4.472;2023-11-19T09:50:19;14.93;72.62
66670;DHT22;53568;52.164;4.472;2023-11-19T09:52:46;15.02;72.06
66670;DHT22;53568;52.164;4.472;2023-11-19T09:55:12;15.13;71.90
66670;DHT22;53568;52.164;4.472;2023-11-19T09:57:39;15.22;71.54
66670;DHT22;53568;52.164;4.472;2023-11-19T10:00:07;15.11;71.32
66670;DHT22;53568;52.164;4.472;2023-11-19T10:02:34;15.06;72.03
66670;DHT22;53568;52.164;4.472;2023-11-19T10:05:09;14.93;73.14
66670;DHT22;53568;52.164;4.472;2023-11-19T10:07:35;14.97;73.91
66670;DHT22;53568;52.164;4.472;2023-11-19T10:10:02;14.92;74.01
66670;DHT22;53568;52.164;4.472;2023-11-19T10:12:31;14.97;73.75
66670;DHT22;53568;52.164;4.472;2023-11-19T10:14:57;15.02;72.63
66670;DHT22;53568;52.164;4.472;2023-11-19T10:17:32;15.03;72.24
66670;DHT22;53568;52.164;4.472;2023-11-19T10:19:58;14.96;71.68
66670;DHT22;53568;52.164;4.472;2023-11-19T10:22:24;15.03;71.83
66670;DHT22;53568;52.164;4.472;2023-11-19T10:24:52;15.04;71.40
66670;DHT22;53568;52.164;4.472;2023-11-19T10:27:17;15.06;71.32
66670;DHT22;53568;52.164;4.472;2023-11-19T10:29:47;15.19;71.10
66670;DHT22;53568;52.164;4.472;2023-11-19T10:32:13;15.20;70.70
66670;DHT22;53568;52.164;4.472;2023-11-19T10:34:40;15.34;70.29
66670;DHT22;53568;52.164;4.472;2023-11-19T10:37:07;15.33;69.98
66670;DHT22;53568;52.164;4.472;2023-11-19T10:39:52;15.37;69.61
66670;DHT22;53568;52.164;4.472;2023-11-19T10:42:21;15.38;69.69
66670;DHT22;53568;52.164;4.472;2023-11-19T10:44:47;15.33;70.02
66670;DHT22;53568;52.164;4.472;2023-11-19T10:47:14;15.31;69.90
66670;DHT22;53568;52.164;4.472;2023-11-19T10:49:40;15.37;69.80
66670;DHT22;53568;52.164;4.472;2023-11-19T10:52:08;15.43;69.73
66670;DHT22;53568;52.164;4.472;2023-11-19T10:54:34;15.40;69.75
66670;DHT22;53568;52.164;4.472;2023-11-19T10:57:02;15.33;70.02
66670;DHT22;53568;52.164;4.472;2023-11-19T10:59:31;15.46;70.23
66670;DHT22;53568;52.164;4.472;2023-11-19T11:02:03;15.41;69.82
66670;DHT22;53568;52.164;4.472;2023-11-19T11:04:39;15.28;70.18
66670;DHT22;53568;52.164;4.472;2023-11-19T11:07:05;15.20;69.81
66670;DHT22;53568;52.164;4.472;2023-11-19T11:09:32;15.10;69.64
66670;DHT22;53568;52.164;4.472;2023-11-19T11:11:59;15.07;69.40
66670;DHT22;53568;52.164;4.472;2023-11-19T11:14:26;15.10;69.43
66670;DHT22;53568;52.164;4.472;2023-11-19T11:16:53;15.17;69.39
66670;DHT22;53568;52.164;4.472;2023-11-19T11:19:19;15.17;69.08
66670;DHT22;53568;52.164;4.472;2023-11-19T11:21:50;15.34;68.80
66670;DHT22;53568;52.164;4.472;2023-11-19T11:30:23;15.34;69.21
66670;DHT22;53568;52.164;4.472;2023-11-19T11:32:52;15.37;69.12
66670;DHT22;53568;52.164;4.472;2023-11-19T11:37:50;15.40;69.14
66670;DHT22;53568;52.164;4.472;2023-11-19T11:40:18;15.44;69.02
66670;DHT22;53568;52.164;4.472;2023-11-19T11:42:47;15.46;69.27
66670;DHT22;53568;52.164;4.472;2023-11-19T11:45:14;15.53;69.19
66670;DHT22;53568;52.164;4.472;2023-11-19T11:50:17;15.51;69.29
66670;DHT22;53568;52.164;4.472;2023-11-19T11:58:19;15.55;69.25
66670;DHT22;53568;52.164;4.472;2023-11-19T12:00:47;15.51;69.21
66670;DHT22;53568;52.164;4.472;2023-11-19T12:03:13;15.46;69.59
66670;DHT22;53568;52.164;4.472;2023-11-19T12:05:42;15.49;69.61
66670;DHT22;53568;52.164;4.472;2023-11-19T12:08:13;15.41;69.32
66670;DHT22;53568;52.164;4.472;2023-11-19T12:10:44;15.41;69.24
66670;DHT22;53568;52.164;4.472;2023-11-19T12:13:11;15.37;69.32
66670;DHT22;53568;52.164;4.472;2023-11-19T12:18:28;15.38;69.17
66670;DHT22;53568;52.164;4.472;2023-11-19T12:20:55;15.41;69.33
66670;DHT22;53568;52.164;4.472;2023-11-19T12:23:22;15.34;69.60
66670;DHT22;53568;52.164;4.472;2023-11-19T12:25:47;15.26;70.03
66670;DHT22;53568;52.164;4.472;2023-11-19T12:28:14;15.33;70.30
66670;DHT22;53568;52.164;4.472;2023-11-19T12:30:42;15.30;70.46
66670;DHT22;53568;52.164;4.472;2023-11-19T12:33:09;15.20;70.72
66670;DHT22;53568;52.164;4.472;2023-11-19T12:35:42;15.22;70.99
66670;DHT22;53568;52.164;4.472;2023-11-19T12:38:21;15.17;71.28
66670;DHT22;53568;52.164;4.472;2023-11-19T12:40:47;15.10;71.46
66670;DHT22;53568;52.164;4.472;2023-11-19T12:43:27;15.13;71.24
66670;DHT22;53568;52.164;4.472;2023-11-19T12:45:52;15.13;71.39
66670;DHT22;53568;52.164;4.472;2023-11-19T12:48:18;15.06;71.33
66670;DHT22;53568;52.164;4.472;2023-11-19T12:50:51;15.13;71.49
66670;DHT22;53568;52.164;4.472;2023-11-19T12:53:18;15.17;71.65
66670;DHT22;53568;52.164;4.472;2023-11-19T12:55:44;15.10;71.79
66670;DHT22;53568;52.164;4.472;2023-11-19T12:58:10;15.13;72.22
66670;DHT22;53568;52.164;4.472;2023-11-19T13:00:36;15.14;72.81
66670;DHT22;53568;52.164;4.472;2023-11-19T13:03:01;15.20;73.09
66670;DHT22;53568;52.164;4.472;2023-11-19T13:05:30;15.14;73.03
66670;DHT22;53568;52.164;4.472;2023-11-19T13:10:29;15.20;72.23
66670;DHT22;53568;52.164;4.472;2023-11-19T13:13:02;15.23;72.05
66670;DHT22;53568;52.164;4.472;2023-11-19T13:15:27;15.33;71.86
66670;DHT22;53568;52.164;4.472;2023-11-19T13:17:53;15.37;71.26
66670;DHT22;53568;52.164;4.472;2023-11-19T13:20:19;15.33;71.28
66670;DHT22;53568;52.164;4.472;2023-11-19T13:23:02;15.38;70.67
66670;DHT22;53568;52.164;4.472;2023-11-19T13:25:29;15.37;70.59
66670;DHT22;53568;52.164;4.472;2023-11-19T13:27:55;15.41;70.62
66670;DHT22;53568;52.164;4.472;2023-11-19T13:30:21;15.44;70.14
66670;DHT22;53568;52.164;4.472;2023-11-19T13:32:51;15.41;69.89
66670;DHT22;53568;52.164;4.472;2023-11-19T13:35:17;15.47;69.83
66670;DHT22;53568;52.164;4.472;2023-11-19T13:37:44;15.34;69.74
66670;DHT22;53568;52.164;4.472;2023-11-19T13:40:11;15.41;69.50
66670;DHT22;53568;52.164;4.472;2023-11-19T13:42:39;15.44;69.73
66670;DHT22;53568;52.164;4.472;2023-11-19T13:45:10;15.49;69.55
66670;DHT22;53568;52.164;4.472;2023-11-19T13:47:41;15.51;69.48
66670;DHT22;53568;52.164;4.472;2023-11-19T13:50:09;15.34;70.30
66670;DHT22;53568;52.164;4.472;2023-11-19T13:52:35;15.28;71.01
66670;DHT22;53568;52.164;4.472;2023-11-19T13:55:02;15.31;71.03
66670;DHT22;53568;52.164;4.472;2023-11-19T13:57:30;15.23;70.95
66670;DHT22;53568;52.164;4.472;2023-11-19T13:59:55;15.14;71.39
66670;DHT22;53568;52.164;4.472;2023-11-19T14:02:21;15.10;71.70
66670;DHT22;53568;52.164;4.472;2023-11-19T14:04:47;15.14;71.74
66670;DHT22;53568;52.164;4.472;2023-11-19T14:07:12;15.04;71.98
66670;DHT22;53568;52.164;4.472;2023-11-19T14:09:38;15.10;71.91
66670;DHT22;53568;52.164;4.472;2023-11-19T14:12:04;15.07;71.76
66670;DHT22;53568;52.164;4.472;2023-11-19T14:14:29;15.06;71.70
66670;DHT22;53568;52.164;4.472;2023-11-19T14:16:55;15.14;71.49
66670;DHT22;53568;52.164;4.472;2023-11-19T14:19:20;15.02;71.63
66670;DHT22;53568;52.164;4.472;2023-11-19T14:21:46;15.00;71.71
66670;DHT22;53568;52.164;4.472;2023-11-19T14:24:12;15.02;71.67
66670;DHT22;53568;52.164;4.472;2023-11-19T14:26:38;15.06;71.56
66670;DHT22;53568;52.164;4.472;2023-11-19T14:29:04;15.00;71.54
66670;DHT22;53568;52.164;4.472;2023-11-19T14:31:29;14.96;71.62
66670;DHT22;53568;52.164;4.472;2023-11-19T14:33:55;14.97;71.70
66670;DHT22;53568;52.164;4.472;2023-11-19T14:36:20;14.97;71.44
66670;DHT22;53568;52.164;4.472;2023-11-19T14:38:46;15.00;71.11
66670;DHT22;53568;52.164;4.472;2023-11-19T14:41:12;15.10;71.02
66670;DHT22;53568;52.164;4.472;2023-11-19T14:43:39;15.03;70.54
66670;DHT22;53568;52.164;4.472;2023-11-19T14:46:05;15.04;70.43
66670;DHT22;53568;52.164;4.472;2023-11-19T14:48:31;15.03;70.31
66670;DHT22;53568;52.164;4.472;2023-11-19T14:50:57;15.06;70.22
66670;DHT22;53568;52.164;4.472;2023-11-19T14:53:23;15.11;70.34
66670;DHT22;53568;52.164;4.472;2023-11-19T14:55:48;15.08;70.51
66670;DHT22;53568;52.164;4.472;2023-11-19T14:58:14;15.07;70.59
66670;DHT22;53568;52.164;4.472;2023-11-19T15:00:39;15.02;70.70
66670;DHT22;53568;52.164;4.472;2023-11-19T15:03:08;14.96;70.76
66670;DHT22;53568;52.164;4.472;2023-11-19T15:05:34;14.89;71.11
66670;DHT22;53568;52.164;4.472;2023-11-19T15:07:59;14.93;71.02
66670;DHT22;53568;52.164;4.472;2023-11-19T15:10:25;14.90;71.18
66670;DHT22;53568;52.164;4.472;2023-11-19T15:12:50;14.86;71.32
66670;DHT22;53568;52.164;4.472;2023-11-19T15:15:17;14.93;71.34
66670;DHT22;53568;52.164;4.472;2023-11-19T15:17:43;14.96;71.54
66670;DHT22;53568;52.164;4.472;2023-11-19T15:20:08;14.92;72.21
66670;DHT22;53568;52.164;4.472;2023-11-19T15:22:34;14.97;72.37
66670;DHT22;53568;52.164;4.472;2023-11-19T15:25:00;15.00;72.67
66670;DHT22;53568;52.164;4.472;2023-11-19T15:27:25;15.00;72.81
66670;DHT22;53568;52.164;4.472;2023-11-19T15:29:51;14.96;73.20
66670;DHT22;53568;52.164;4.472;2023-11-19T15:32:18;14.89;73.54
66670;DHT22;53568;52.164;4.472;2023-11-19T15:34:43;14.90;73.91
66670;DHT22;53568;52.164;4.472;2023-11-19T15:37:09;14.90;73.97
66670;DHT22;53568;52.164;4.472;2023-11-19T15:39:34;15.02;73.71
66670;DHT22;53568;52.164;4.472;2023-11-19T15:42:02;14.89;74.12
66670;DHT22;53568;52.164;4.472;2023-11-19T15:44:27;14.83;74.50
66670;DHT22;53568;52.164;4.472;2023-11-19T15:46:54;14.83;74.33
66670;DHT22;53568;52.164;4.472;2023-11-19T15:49:21;14.83;74.36
66670;DHT22;53568;52.164;4.472;2023-11-19T15:51:46;14.87;74.52